sensor_id;sensor_type;location;lat;lon;timestamp;P1;durP1;ratioP1;P2;durP2;ratioP2
34296;SDS011;20564;42.902;25.336;2023-04-15T00:00:06;1.42;;;0.60;;
34296;SDS011;20564;42.902;25.336;2023-04-15T00:02:34;1.70;;;0.40;;
34296;SDS011;20564;42.902;25.336;2023-04-15T00:05:03;4.30;;;0.80;;
34296;SDS011;20564;42.902;25.336;2023-04-15T00:07:34;1.13;;;0.60;;
34296;SDS011;20564;42.902;25.336;2023-04-15T00:10:07;0.75;;;0.30;;
34296;SDS011;20564;42.902;25.336;2023-04-15T00:12:41;2.10;;;0.47;;
34296;SDS011;20564;42.902;25.336;2023-04-15T00:15:18;1.80;;;0.40;;
34296;SDS011;20564;42.902;25.336;2023-04-15T00:17:50;1.77;;;0.45;;
34296;SDS011;20564;42.902;25.336;2023-04-15T00:20:27;1.23;;;0.30;;
34296;SDS011;20564;42.902;25.336;2023-04-15T00:23:07;1.25;;;0.50;;
34296;SDS011;20564;42.902;25.336;2023-04-15T00:25:36;1.67;;;0.50;;
34296;SDS011;20564;42.902;25.336;2023-04-15T00:28:40;2.20;;;0.68;;
34296;SDS011;20564;42.902;25.336;2023-04-15T00:31:11;2.80;;;0.52;;
34296;SDS011;20564;42.902;25.336;2023-04-15T00:33:47;0.70;;;0.40;;
34296;SDS011;20564;42.902;25.336;2023-04-15T00:36:21;2.28;;;0.73;;
34296;SDS011;20564;42.902;25.336;2023-04-15T00:39:18;1.15;;;0.40;;
34296;SDS011;20564;42.902;25.336;2023-04-15T00:41:48;2.28;;;0.60;;
34296;SDS011;20564;42.902;25.336;2023-04-15T00:44:45;0.75;;;0.40;;
34296;SDS011;20564;42.902;25.336;2023-04-15T00:47:15;1.40;;;0.52;;
34296;SDS011;20564;42.902;25.336;2023-04-15T00:49:48;1.98;;;0.60;;
34296;SDS011;20564;42.902;25.336;2023-04-15T00:52:59;1.98;;;0.73;;
34296;SDS011;20564;42.902;25.336;2023-04-15T00:56:02;1.05;;;0.45;;
34296;SDS011;20564;42.902;25.336;2023-04-15T00:59:08;1.60;;;0.63;;
34296;SDS011;20564;42.902;25.336;2023-04-15T01:01:54;1.45;;;0.55;;
34296;SDS011;20564;42.902;25.336;2023-04-15T01:04:46;0.82;;;0.40;;
34296;SDS011;20564;42.902;25.336;2023-04-15T01:07:28;1.83;;;0.50;;
34296;SDS011;20564;42.902;25.336;2023-04-15T01:10:20;2.47;;;0.40;;
34296;SDS011;20564;42.902;25.336;2023-04-15T01:13:46;2.83;;;0.73;;
34296;SDS011;20564;42.902;25.336;2023-04-15T01:16:57;3.10;;;0.50;;
34296;SDS011;20564;42.902;25.336;2023-04-15T01:19:54;1.13;;;0.43;;
34296;SDS011;20564;42.902;25.336;2023-04-15T01:22:50;2.40;;;0.60;;
34296;SDS011;20564;42.902;25.336;2023-04-15T01:25:48;2.35;;;0.40;;
34296;SDS011;20564;42.902;25.336;2023-04-15T01:28:55;1.27;;;0.55;;
34296;SDS011;20564;42.902;25.336;2023-04-15T01:31:28;2.15;;;0.50;;
34296;SDS011;20564;42.902;25.336;2023-04-15T01:33:59;1.98;;;0.63;;
34296;SDS011;20564;42.902;25.336;2023-04-15T01:47:02;1.63;;;0.60;;
34296;SDS011;20564;42.902;25.336;2023-04-15T01:51:02;1.58;;;0.40;;
34296;SDS011;20564;42.902;25.336;2023-04-15T01:54:21;1.27;;;0.68;;
34296;SDS011;20564;42.902;25.336;2023-04-15T02:00:37;1.73;;;0.60;;
34296;SDS011;20564;42.902;25.336;2023-04-15T02:03:19;1.92;;;0.80;;
34296;SDS011;20564;42.902;25.336;2023-04-15T02:06:19;1.67;;;0.40;;
34296;SDS011;20564;42.902;25.336;2023-04-15T02:09:11;2.47;;;0.45;;
34296;SDS011;20564;42.902;25.336;2023-04-15T02:16:21;1.25;;;0.50;;
34296;SDS011;20564;42.902;25.336;2023-04-15T02:22:32;0.52;;;0.40;;
34296;SDS011;20564;42.902;25.336;2023-04-15T02:26:20;1.67;;;0.40;;
34296;SDS011;20564;42.902;25.336;2023-04-15T02:44:18;4.43;;;1.23;;
34296;SDS011;20564;42.902;25.336;2023-04-15T02:47:39;4.53;;;1.10;;
34296;SDS011;20564;42.902;25.336;2023-04-15T02:59:04;3.08;;;0.82;;
34296;SDS011;20564;42.902;25.336;2023-04-15T03:02:48;4.28;;;1.17;;
34296;SDS011;20564;42.902;25.336;2023-04-15T03:09:52;3.08;;;0.95;;
34296;SDS011;20564;42.902;25.336;2023-04-15T03:16:45;3.78;;;0.85;;
34296;SDS011;20564;42.902;25.336;2023-04-15T03:19:46;3.30;;;0.88;;
34296;SDS011;20564;42.902;25.336;2023-04-15T03:22:57;1.05;;;0.50;;
34296;SDS011;20564;42.902;25.336;2023-04-15T03:25:23;2.03;;;0.88;;
34296;SDS011;20564;42.902;25.336;2023-04-15T03:27:51;1.73;;;0.80;;
34296;SDS011;20564;42.902;25.336;2023-04-15T03:30:18;2.55;;;0.93;;
34296;SDS011;20564;42.902;25.336;2023-04-15T03:32:45;1.85;;;0.90;;
34296;SDS011;20564;42.902;25.336;2023-04-15T03:35:13;4.00;;;1.15;;
34296;SDS011;20564;42.902;25.336;2023-04-15T03:40:21;2.05;;;0.80;;
34296;SDS011;20564;42.902;25.336;2023-04-15T03:43:08;2.08;;;0.88;;
34296;SDS011;20564;42.902;25.336;2023-04-15T03:46:31;2.63;;;0.98;;
34296;SDS011;20564;42.902;25.336;2023-04-15T03:48:58;1.88;;;0.98;;
34296;SDS011;20564;42.902;25.336;2023-04-15T03:51:25;4.32;;;1.00;;
34296;SDS011;20564;42.902;25.336;2023-04-15T03:53:52;4.30;;;1.08;;
34296;SDS011;20564;42.902;25.336;2023-04-15T03:56:24;4.68;;;1.17;;
34296;SDS011;20564;42.902;25.336;2023-04-15T03:58:51;4.30;;;1.20;;
34296;SDS011;20564;42.902;25.336;2023-04-15T04:01:18;2.00;;;1.02;;
34296;SDS011;20564;42.902;25.336;2023-04-15T04:03:45;4.10;;;1.50;;
34296;SDS011;20564;42.902;25.336;2023-04-15T04:06:12;4.65;;;1.52;;
34296;SDS011;20564;42.902;25.336;2023-04-15T04:08:39;3.58;;;1.40;;
34296;SDS011;20564;42.902;25.336;2023-04-15T04:11:07;4.63;;;1.17;;
34296;SDS011;20564;42.902;25.336;2023-04-15T04:13:33;3.33;;;1.15;;
34296;SDS011;20564;42.902;25.336;2023-04-15T04:16:21;4.97;;;1.50;;
34296;SDS011;20564;42.902;25.336;2023-04-15T04:18:57;10.40;;;1.30;;
34296;SDS011;20564;42.902;25.336;2023-04-15T04:21:28;4.20;;;1.80;;
34296;SDS011;20564;42.902;25.336;2023-04-15T04:23:59;4.60;;;1.38;;
34296;SDS011;20564;42.902;25.336;2023-04-15T04:26:26;5.20;;;1.77;;
34296;SDS011;20564;42.902;25.336;2023-04-15T04:28:53;4.90;;;1.67;;
34296;SDS011;20564;42.902;25.336;2023-04-15T04:31:22;5.20;;;1.58;;
34296;SDS011;20564;42.902;25.336;2023-04-15T04:33:49;3.65;;;1.20;;
34296;SDS011;20564;42.902;25.336;2023-04-15T04:36:18;5.22;;;1.55;;
34296;SDS011;20564;42.902;25.336;2023-04-15T04:38:45;3.67;;;1.40;;
34296;SDS011;20564;42.902;25.336;2023-04-15T04:41:15;4.05;;;1.60;;
34296;SDS011;20564;42.902;25.336;2023-04-15T04:43:42;5.53;;;1.50;;
34296;SDS011;20564;42.902;25.336;2023-04-15T04:46:08;6.30;;;2.05;;
34296;SDS011;20564;42.902;25.336;2023-04-15T04:48:38;3.67;;;1.60;;
34296;SDS011;20564;42.902;25.336;2023-04-15T04:51:05;5.53;;;1.77;;
34296;SDS011;20564;42.902;25.336;2023-04-15T04:53:33;8.20;;;1.75;;
34296;SDS011;20564;42.902;25.336;2023-04-15T04:56:07;7.43;;;2.10;;
34296;SDS011;20564;42.902;25.336;2023-04-15T04:58:34;3.95;;;1.50;;
34296;SDS011;20564;42.902;25.336;2023-04-15T05:01:01;4.18;;;1.20;;
34296;SDS011;20564;42.902;25.336;2023-04-15T05:03:47;3.50;;;1.35;;
34296;SDS011;20564;42.902;25.336;2023-04-15T05:06:41;3.45;;;1.30;;
34296;SDS011;20564;42.902;25.336;2023-04-15T05:09:08;2.90;;;1.38;;
34296;SDS011;20564;42.902;25.336;2023-04-15T05:11:36;8.98;;;2.30;;
34296;SDS011;20564;42.902;25.336;2023-04-15T05:21:16;5.22;;;1.70;;
34296;SDS011;20564;42.902;25.336;2023-04-15T05:23:52;6.00;;;1.80;;
34296;SDS011;20564;42.902;25.336;2023-04-15T05:26:27;4.20;;;1.48;;
34296;SDS011;20564;42.902;25.336;2023-04-15T05:29:13;4.60;;;1.65;;
34296;SDS011;20564;42.902;25.336;2023-04-15T05:31:49;5.88;;;2.00;;
34296;SDS011;20564;42.902;25.336;2023-04-15T05:34:20;6.22;;;1.58;;
34296;SDS011;20564;42.902;25.336;2023-04-15T05:36:50;4.70;;;1.30;;
34296;SDS011;20564;42.902;25.336;2023-04-15T05:39:41;2.78;;;1.05;;
34296;SDS011;20564;42.902;25.336;2023-04-15T05:42:09;4.43;;;1.30;;
34296;SDS011;20564;42.902;25.336;2023-04-15T05:44:37;5.00;;;1.30;;
34296;SDS011;20564;42.902;25.336;2023-04-15T05:47:09;4.53;;;1.20;;
34296;SDS011;20564;42.902;25.336;2023-04-15T05:50:03;3.10;;;1.15;;
34296;SDS011;20564;42.902;25.336;2023-04-15T05:52:31;4.10;;;1.33;;
34296;SDS011;20564;42.902;25.336;2023-04-15T05:55:24;4.68;;;1.13;;
34296;SDS011;20564;42.902;25.336;2023-04-15T05:57:52;2.90;;;1.20;;
34296;SDS011;20564;42.902;25.336;2023-04-15T06:00:55;3.60;;;1.00;;
34296;SDS011;20564;42.902;25.336;2023-04-15T06:03:23;1.98;;;0.82;;
34296;SDS011;20564;42.902;25.336;2023-04-15T06:06:04;2.95;;;1.02;;
34296;SDS011;20564;42.902;25.336;2023-04-15T06:09:09;4.32;;;1.08;;
34296;SDS011;20564;42.902;25.336;2023-04-15T06:11:37;2.75;;;0.70;;
34296;SDS011;20564;42.902;25.336;2023-04-15T06:18:25;2.10;;;0.90;;
34296;SDS011;20564;42.902;25.336;2023-04-15T06:20:53;4.05;;;0.90;;
34296;SDS011;20564;42.902;25.336;2023-04-15T06:23:46;1.83;;;0.60;;
34296;SDS011;20564;42.902;25.336;2023-04-15T06:29:04;2.35;;;0.57;;
34296;SDS011;20564;42.902;25.336;2023-04-15T06:31:41;2.88;;;0.52;;
34296;SDS011;20564;42.902;25.336;2023-04-15T06:34:48;2.13;;;0.60;;
34296;SDS011;20564;42.902;25.336;2023-04-15T06:38:29;1.75;;;0.85;;
34296;SDS011;20564;42.902;25.336;2023-04-15T06:41:00;3.20;;;0.60;;
34296;SDS011;20564;42.902;25.336;2023-04-15T06:43:28;4.03;;;0.50;;
34296;SDS011;20564;42.902;25.336;2023-04-15T06:46:03;1.23;;;0.40;;
34296;SDS011;20564;42.902;25.336;2023-04-15T06:48:34;1.42;;;0.40;;
34296;SDS011;20564;42.902;25.336;2023-04-15T06:51:04;1.10;;;0.40;;
34296;SDS011;20564;42.902;25.336;2023-04-15T06:53:31;2.35;;;0.38;;
34296;SDS011;20564;42.902;25.336;2023-04-15T06:56:01;3.42;;;0.73;;
34296;SDS011;20564;42.902;25.336;2023-04-15T06:58:29;2.33;;;0.55;;
34296;SDS011;20564;42.902;25.336;2023-04-15T07:00:56;4.57;;;0.60;;
34296;SDS011;20564;42.902;25.336;2023-04-15T07:03:24;6.15;;;1.13;;
34296;SDS011;20564;42.902;25.336;2023-04-15T07:05:50;4.03;;;0.40;;
34296;SDS011;20564;42.902;25.336;2023-04-15T07:08:18;1.98;;;0.28;;
34296;SDS011;20564;42.902;25.336;2023-04-15T07:10:54;1.00;;;0.30;;
34296;SDS011;20564;42.902;25.336;2023-04-15T07:13:39;3.10;;;0.63;;
34296;SDS011;20564;42.902;25.336;2023-04-15T07:16:15;1.00;;;0.40;;
34296;SDS011;20564;42.902;25.336;2023-04-15T07:18:55;1.48;;;0.60;;
34296;SDS011;20564;42.902;25.336;2023-04-15T07:21:23;1.80;;;0.50;;
34296;SDS011;20564;42.902;25.336;2023-04-15T07:23:50;1.23;;;0.55;;
34296;SDS011;20564;42.902;25.336;2023-04-15T07:26:18;1.83;;;0.50;;
34296;SDS011;20564;42.902;25.336;2023-04-15T07:28:50;1.70;;;0.30;;
34296;SDS011;20564;42.902;25.336;2023-04-15T07:34:37;2.05;;;0.45;;
34296;SDS011;20564;42.902;25.336;2023-04-15T07:37:35;2.60;;;0.43;;
34296;SDS011;20564;42.902;25.336;2023-04-15T07:40:14;1.98;;;0.40;;
34296;SDS011;20564;42.902;25.336;2023-04-15T07:43:30;2.38;;;0.40;;
34296;SDS011;20564;42.902;25.336;2023-04-15T07:46:27;1.02;;;0.30;;
34296;SDS011;20564;42.902;25.336;2023-04-15T07:48:54;2.22;;;0.70;;
34296;SDS011;20564;42.902;25.336;2023-04-15T07:51:21;1.95;;;0.57;;
34296;SDS011;20564;42.902;25.336;2023-04-15T07:53:48;3.40;;;0.40;;
34296;SDS011;20564;42.902;25.336;2023-04-15T07:56:22;1.15;;;0.43;;
34296;SDS011;20564;42.902;25.336;2023-04-15T07:58:51;1.10;;;0.60;;
34296;SDS011;20564;42.902;25.336;2023-04-15T08:01:22;1.42;;;0.50;;
34296;SDS011;20564;42.902;25.336;2023-04-15T08:04:59;0.75;;;0.30;;
34296;SDS011;20564;42.902;25.336;2023-04-15T08:07:31;1.00;;;0.38;;
34296;SDS011;20564;42.902;25.336;2023-04-15T08:11:06;1.57;;;0.30;;
34296;SDS011;20564;42.902;25.336;2023-04-15T08:13:39;1.30;;;0.30;;
34296;SDS011;20564;42.902;25.336;2023-04-15T08:16:14;1.48;;;0.30;;
34296;SDS011;20564;42.902;25.336;2023-04-15T08:18:48;5.03;;;0.50;;
34296;SDS011;20564;42.902;25.336;2023-04-15T08:21:17;0.35;;;0.28;;
34296;SDS011;20564;42.902;25.336;2023-04-15T08:23:46;2.72;;;0.60;;
34296;SDS011;20564;42.902;25.336;2023-04-15T08:26:28;2.35;;;0.40;;
34296;SDS011;20564;42.902;25.336;2023-04-15T08:29:18;4.43;;;0.63;;
34296;SDS011;20564;42.902;25.336;2023-04-15T08:32:10;1.10;;;0.32;;
34296;SDS011;20564;42.902;25.336;2023-04-15T08:35:07;2.38;;;0.60;;
34296;SDS011;20564;42.902;25.336;2023-04-15T08:38:16;1.20;;;0.35;;
34296;SDS011;20564;42.902;25.336;2023-04-15T08:40:46;2.10;;;0.47;;
34296;SDS011;20564;42.902;25.336;2023-04-15T08:43:23;3.30;;;0.82;;
34296;SDS011;20564;42.902;25.336;2023-04-15T08:46:02;2.70;;;0.70;;
34296;SDS011;20564;42.902;25.336;2023-04-15T08:48:49;2.95;;;0.50;;
34296;SDS011;20564;42.902;25.336;2023-04-15T08:51:49;1.73;;;0.28;;
34296;SDS011;20564;42.902;25.336;2023-04-15T08:54:27;1.08;;;0.40;;
34296;SDS011;20564;42.902;25.336;2023-04-15T08:56:56;2.70;;;0.70;;
34296;SDS011;20564;42.902;25.336;2023-04-15T08:59:24;1.85;;;0.52;;
34296;SDS011;20564;42.902;25.336;2023-04-15T09:01:54;1.73;;;0.55;;
34296;SDS011;20564;42.902;25.336;2023-04-15T09:04:22;1.70;;;0.82;;
34296;SDS011;20564;42.902;25.336;2023-04-15T09:06:58;1.58;;;0.60;;
34296;SDS011;20564;42.902;25.336;2023-04-15T09:09:34;0.77;;;0.40;;
34296;SDS011;20564;42.902;25.336;2023-04-15T09:12:03;3.97;;;0.70;;
34296;SDS011;20564;42.902;25.336;2023-04-15T09:14:29;2.93;;;0.87;;
34296;SDS011;20564;42.902;25.336;2023-04-15T09:16:59;1.48;;;0.68;;
34296;SDS011;20564;42.902;25.336;2023-04-15T09:19:36;2.03;;;0.88;;
34296;SDS011;20564;42.902;25.336;2023-04-15T09:22:19;1.48;;;0.50;;
34296;SDS011;20564;42.902;25.336;2023-04-15T09:24:47;1.50;;;0.50;;
34296;SDS011;20564;42.902;25.336;2023-04-15T09:27:19;1.60;;;0.50;;
34296;SDS011;20564;42.902;25.336;2023-04-15T09:30:07;2.45;;;0.70;;
34296;SDS011;20564;42.902;25.336;2023-04-15T09:33:01;5.63;;;2.22;;
34296;SDS011;20564;42.902;25.336;2023-04-15T09:35:40;2.70;;;0.80;;
34296;SDS011;20564;42.902;25.336;2023-04-15T09:38:24;2.92;;;0.57;;
34296;SDS011;20564;42.902;25.336;2023-04-15T09:41:27;2.67;;;0.88;;
34296;SDS011;20564;42.902;25.336;2023-04-15T09:43:54;4.40;;;1.20;;
34296;SDS011;20564;42.902;25.336;2023-04-15T09:46:39;2.53;;;0.60;;
34296;SDS011;20564;42.902;25.336;2023-04-15T09:52:32;1.92;;;0.70;;
34296;SDS011;20564;42.902;25.336;2023-04-15T10:02:08;1.85;;;0.50;;
34296;SDS011;20564;42.902;25.336;2023-04-15T10:04:38;0.82;;;0.30;;
34296;SDS011;20564;42.902;25.336;2023-04-15T10:08:09;1.25;;;0.40;;
34296;SDS011;20564;42.902;25.336;2023-04-15T10:15:11;3.67;;;1.20;;
34296;SDS011;20564;42.902;25.336;2023-04-15T10:18:09;8.70;;;1.48;;
34296;SDS011;20564;42.902;25.336;2023-04-15T10:20:39;1.27;;;0.60;;
34296;SDS011;20564;42.902;25.336;2023-04-15T10:28:10;0.75;;;0.20;;
34296;SDS011;20564;42.902;25.336;2023-04-15T10:34:08;2.40;;;0.52;;
34296;SDS011;20564;42.902;25.336;2023-04-15T10:36:36;1.45;;;0.40;;
34296;SDS011;20564;42.902;25.336;2023-04-15T10:42:32;0.88;;;0.35;;
34296;SDS011;20564;42.902;25.336;2023-04-15T10:48:24;1.83;;;0.40;;
34296;SDS011;20564;42.902;25.336;2023-04-15T10:50:55;2.58;;;0.40;;
34296;SDS011;20564;42.902;25.336;2023-04-15T11:00:12;1.65;;;0.55;;
34296;SDS011;20564;42.902;25.336;2023-04-15T11:03:49;1.52;;;0.38;;
34296;SDS011;20564;42.902;25.336;2023-04-15T11:07:03;4.15;;;0.68;;
34296;SDS011;20564;42.902;25.336;2023-04-15T11:12:56;3.50;;;0.75;;
34296;SDS011;20564;42.902;25.336;2023-04-15T11:15:31;4.60;;;0.80;;
34296;SDS011;20564;42.902;25.336;2023-04-15T11:21:04;4.57;;;0.77;;
34296;SDS011;20564;42.902;25.336;2023-04-15T11:26:09;3.57;;;0.97;;
34296;SDS011;20564;42.902;25.336;2023-04-15T11:28:51;1.63;;;0.60;;
34296;SDS011;20564;42.902;25.336;2023-04-15T11:31:19;2.10;;;0.45;;
34296;SDS011;20564;42.902;25.336;2023-04-15T11:34:09;1.27;;;0.50;;
34296;SDS011;20564;42.902;25.336;2023-04-15T11:36:36;2.10;;;0.70;;
34296;SDS011;20564;42.902;25.336;2023-04-15T11:39:03;4.85;;;0.95;;
34296;SDS011;20564;42.902;25.336;2023-04-15T11:41:40;2.75;;;0.50;;
34296;SDS011;20564;42.902;25.336;2023-04-15T11:44:19;1.30;;;0.45;;
34296;SDS011;20564;42.902;25.336;2023-04-15T11:46:46;1.50;;;0.63;;
34296;SDS011;20564;42.902;25.336;2023-04-15T11:49:27;0.82;;;0.40;;
34296;SDS011;20564;42.902;25.336;2023-04-15T11:51:54;13.57;;;1.55;;
34296;SDS011;20564;42.902;25.336;2023-04-15T11:54:21;2.92;;;0.70;;
34296;SDS011;20564;42.902;25.336;2023-04-15T11:56:49;2.55;;;1.10;;
34296;SDS011;20564;42.902;25.336;2023-04-15T11:59:19;3.03;;;0.93;;
34296;SDS011;20564;42.902;25.336;2023-04-15T12:01:46;1.90;;;1.02;;
34296;SDS011;20564;42.902;25.336;2023-04-15T12:04:16;3.90;;;1.17;;
34296;SDS011;20564;42.902;25.336;2023-04-15T12:06:51;2.47;;;1.00;;
34296;SDS011;20564;42.902;25.336;2023-04-15T12:09:18;2.47;;;1.13;;
34296;SDS011;20564;42.902;25.336;2023-04-15T12:11:49;3.50;;;1.10;;
34296;SDS011;20564;42.902;25.336;2023-04-15T12:14:24;2.22;;;1.08;;
34296;SDS011;20564;42.902;25.336;2023-04-15T12:16:59;3.92;;;1.10;;
34296;SDS011;20564;42.902;25.336;2023-04-15T12:19:35;2.88;;;1.10;;
34296;SDS011;20564;42.902;25.336;2023-04-15T12:22:12;3.95;;;1.35;;
34296;SDS011;20564;42.902;25.336;2023-04-15T12:24:42;1.70;;;0.88;;
34296;SDS011;20564;42.902;25.336;2023-04-15T12:27:14;3.53;;;1.23;;
34296;SDS011;20564;42.902;25.336;2023-04-15T12:29:50;3.33;;;1.25;;
34296;SDS011;20564;42.902;25.336;2023-04-15T12:32:29;2.90;;;1.10;;
34296;SDS011;20564;42.902;25.336;2023-04-15T12:35:23;4.28;;;1.10;;
34296;SDS011;20564;42.902;25.336;2023-04-15T12:38:37;1.38;;;0.80;;
34296;SDS011;20564;42.902;25.336;2023-04-15T12:44:12;10.10;;;1.42;;
34296;SDS011;20564;42.902;25.336;2023-04-15T12:46:50;4.45;;;1.70;;
34296;SDS011;20564;42.902;25.336;2023-04-15T12:49:22;7.18;;;1.65;;
34296;SDS011;20564;42.902;25.336;2023-04-15T12:52:14;7.32;;;1.30;;
34296;SDS011;20564;42.902;25.336;2023-04-15T12:55:56;3.42;;;1.00;;
34296;SDS011;20564;42.902;25.336;2023-04-15T12:58:29;2.47;;;0.85;;
34296;SDS011;20564;42.902;25.336;2023-04-15T13:01:01;3.85;;;1.08;;
34296;SDS011;20564;42.902;25.336;2023-04-15T13:03:32;2.00;;;0.73;;
34296;SDS011;20564;42.902;25.336;2023-04-15T13:06:02;3.42;;;0.90;;
34296;SDS011;20564;42.902;25.336;2023-04-15T13:08:30;2.85;;;0.90;;
34296;SDS011;20564;42.902;25.336;2023-04-15T13:11:23;2.25;;;1.02;;
34296;SDS011;20564;42.902;25.336;2023-04-15T13:13:50;2.00;;;1.02;;
34296;SDS011;20564;42.902;25.336;2023-04-15T13:16:22;3.33;;;0.90;;
34296;SDS011;20564;42.902;25.336;2023-04-15T13:18:50;1.48;;;0.70;;
34296;SDS011;20564;42.902;25.336;2023-04-15T13:21:24;1.65;;;0.65;;
34296;SDS011;20564;42.902;25.336;2023-04-15T13:26:43;3.78;;;1.08;;
34296;SDS011;20564;42.902;25.336;2023-04-15T13:29:31;3.70;;;0.85;;
34296;SDS011;20564;42.902;25.336;2023-04-15T13:31:59;1.83;;;0.98;;
34296;SDS011;20564;42.902;25.336;2023-04-15T13:34:52;3.10;;;1.00;;
34296;SDS011;20564;42.902;25.336;2023-04-15T13:37:33;3.60;;;0.90;;
34296;SDS011;20564;42.902;25.336;2023-04-15T13:40:09;1.97;;;0.70;;
34296;SDS011;20564;42.902;25.336;2023-04-15T13:42:37;2.55;;;0.80;;
34296;SDS011;20564;42.902;25.336;2023-04-15T13:45:04;6.07;;;1.20;;
34296;SDS011;20564;42.902;25.336;2023-04-15T13:47:32;15.75;;;2.60;;
34296;SDS011;20564;42.902;25.336;2023-04-15T13:49:58;2.57;;;0.60;;
34296;SDS011;20564;42.902;25.336;2023-04-15T13:52:29;5.35;;;0.77;;
34296;SDS011;20564;42.902;25.336;2023-04-15T13:54:56;3.47;;;0.95;;
34296;SDS011;20564;42.902;25.336;2023-04-15T13:58:11;1.02;;;0.65;;
34296;SDS011;20564;42.902;25.336;2023-04-15T14:04:00;1.50;;;0.70;;
34296;SDS011;20564;42.902;25.336;2023-04-15T14:06:33;2.30;;;0.73;;
34296;SDS011;20564;42.902;25.336;2023-04-15T14:09:00;2.55;;;0.95;;
34296;SDS011;20564;42.902;25.336;2023-04-15T14:11:27;2.92;;;1.00;;
34296;SDS011;20564;42.902;25.336;2023-04-15T14:13:58;2.22;;;0.88;;
34296;SDS011;20564;42.902;25.336;2023-04-15T14:16:29;1.67;;;0.50;;
34296;SDS011;20564;42.902;25.336;2023-04-15T14:19:00;1.45;;;0.73;;
34296;SDS011;20564;42.902;25.336;2023-04-15T14:21:28;2.20;;;0.60;;
34296;SDS011;20564;42.902;25.336;2023-04-15T14:24:00;5.93;;;2.03;;
34296;SDS011;20564;42.902;25.336;2023-04-15T14:26:27;5.43;;;1.60;;
34296;SDS011;20564;42.902;25.336;2023-04-15T14:28:55;2.75;;;1.08;;
34296;SDS011;20564;42.902;25.336;2023-04-15T14:31:22;1.83;;;1.00;;
34296;SDS011;20564;42.902;25.336;2023-04-15T14:33:58;2.13;;;0.82;;
34296;SDS011;20564;42.902;25.336;2023-04-15T14:36:25;3.20;;;0.70;;
34296;SDS011;20564;42.902;25.336;2023-04-15T14:38:54;2.05;;;1.00;;
34296;SDS011;20564;42.902;25.336;2023-04-15T14:41:25;1.30;;;0.70;;
34296;SDS011;20564;42.902;25.336;2023-04-15T14:43:52;2.38;;;0.85;;
34296;SDS011;20564;42.902;25.336;2023-04-15T14:46:52;3.80;;;0.88;;
34296;SDS011;20564;42.902;25.336;2023-04-15T14:49:20;5.45;;;0.90;;
34296;SDS011;20564;42.902;25.336;2023-04-15T14:51:47;2.55;;;0.60;;
34296;SDS011;20564;42.902;25.336;2023-04-15T14:54:14;2.42;;;0.65;;
34296;SDS011;20564;42.902;25.336;2023-04-15T14:56:41;1.40;;;0.65;;
34296;SDS011;20564;42.902;25.336;2023-04-15T14:59:08;5.33;;;1.30;;
34296;SDS011;20564;42.902;25.336;2023-04-15T15:02:41;2.20;;;0.90;;
34296;SDS011;20564;42.902;25.336;2023-04-15T15:05:18;1.55;;;0.55;;
34296;SDS011;20564;42.902;25.336;2023-04-15T15:07:45;2.28;;;0.50;;
34296;SDS011;20564;42.902;25.336;2023-04-15T15:14:06;1.75;;;0.60;;
34296;SDS011;20564;42.902;25.336;2023-04-15T15:17:15;2.75;;;0.88;;
34296;SDS011;20564;42.902;25.336;2023-04-15T15:19:42;2.77;;;0.90;;
34296;SDS011;20564;42.902;25.336;2023-04-15T15:22:12;3.00;;;0.73;;
34296;SDS011;20564;42.902;25.336;2023-04-15T15:24:40;3.38;;;1.00;;
34296;SDS011;20564;42.902;25.336;2023-04-15T15:27:07;1.90;;;0.75;;
34296;SDS011;20564;42.902;25.336;2023-04-15T15:29:34;3.30;;;0.95;;
34296;SDS011;20564;42.902;25.336;2023-04-15T15:32:04;2.90;;;0.80;;
34296;SDS011;20564;42.902;25.336;2023-04-15T15:34:31;5.32;;;1.00;;
34296;SDS011;20564;42.902;25.336;2023-04-15T15:37:05;2.83;;;1.00;;
34296;SDS011;20564;42.902;25.336;2023-04-15T15:39:33;5.20;;;1.17;;
34296;SDS011;20564;42.902;25.336;2023-04-15T15:42:00;2.03;;;0.90;;
34296;SDS011;20564;42.902;25.336;2023-04-15T15:44:27;3.85;;;0.80;;
34296;SDS011;20564;42.902;25.336;2023-04-15T15:46:56;6.35;;;1.35;;
34296;SDS011;20564;42.902;25.336;2023-04-15T15:49:31;5.40;;;1.52;;
34296;SDS011;20564;42.902;25.336;2023-04-15T15:51:58;3.63;;;1.10;;
34296;SDS011;20564;42.902;25.336;2023-04-15T15:54:27;3.87;;;1.40;;
34296;SDS011;20564;42.902;25.336;2023-04-15T15:56:55;4.93;;;1.25;;
34296;SDS011;20564;42.902;25.336;2023-04-15T15:59:25;3.63;;;1.17;;
34296;SDS011;20564;42.902;25.336;2023-04-15T16:01:51;3.70;;;1.25;;
34296;SDS011;20564;42.902;25.336;2023-04-15T16:04:19;4.05;;;1.48;;
34296;SDS011;20564;42.902;25.336;2023-04-15T16:06:49;5.13;;;1.27;;
34296;SDS011;20564;42.902;25.336;2023-04-15T16:09:16;5.60;;;1.20;;
34296;SDS011;20564;42.902;25.336;2023-04-15T16:11:44;4.07;;;1.10;;
34296;SDS011;20564;42.902;25.336;2023-04-15T16:14:30;7.13;;;1.88;;
34296;SDS011;20564;42.902;25.336;2023-04-15T16:17:05;6.80;;;1.65;;
34296;SDS011;20564;42.902;25.336;2023-04-15T16:19:33;7.80;;;2.35;;
34296;SDS011;20564;42.902;25.336;2023-04-15T16:25:26;2.58;;;1.05;;
34296;SDS011;20564;42.902;25.336;2023-04-15T16:28:26;2.55;;;0.80;;
34296;SDS011;20564;42.902;25.336;2023-04-15T16:31:03;3.17;;;0.68;;
34296;SDS011;20564;42.902;25.336;2023-04-15T16:33:33;4.95;;;0.75;;
34296;SDS011;20564;42.902;25.336;2023-04-15T16:36:47;3.28;;;0.73;;
34296;SDS011;20564;42.902;25.336;2023-04-15T16:39:14;1.40;;;0.90;;
34296;SDS011;20564;42.902;25.336;2023-04-15T16:41:50;3.70;;;1.05;;
34296;SDS011;20564;42.902;25.336;2023-04-15T16:44:17;5.50;;;1.75;;
34296;SDS011;20564;42.902;25.336;2023-04-15T16:47:31;5.95;;;2.00;;
34296;SDS011;20564;42.902;25.336;2023-04-15T16:49:58;5.55;;;1.95;;
34296;SDS011;20564;42.902;25.336;2023-04-15T16:52:45;3.72;;;1.50;;
34296;SDS011;20564;42.902;25.336;2023-04-15T16:55:18;5.28;;;1.60;;
34296;SDS011;20564;42.902;25.336;2023-04-15T16:57:53;6.65;;;1.95;;
34296;SDS011;20564;42.902;25.336;2023-04-15T17:00:41;8.82;;;3.03;;
34296;SDS011;20564;42.902;25.336;2023-04-15T17:03:18;13.02;;;4.63;;
34296;SDS011;20564;42.902;25.336;2023-04-15T17:05:54;12.27;;;4.47;;
34296;SDS011;20564;42.902;25.336;2023-04-15T17:09:04;10.45;;;3.38;;
34296;SDS011;20564;42.902;25.336;2023-04-15T17:12:28;9.27;;;3.10;;
34296;SDS011;20564;42.902;25.336;2023-04-15T17:15:29;6.82;;;2.42;;
34296;SDS011;20564;42.902;25.336;2023-04-15T17:18:10;6.60;;;2.40;;
34296;SDS011;20564;42.902;25.336;2023-04-15T17:20:37;11.98;;;2.83;;
34296;SDS011;20564;42.902;25.336;2023-04-15T17:23:11;6.53;;;1.85;;
34296;SDS011;20564;42.902;25.336;2023-04-15T17:26:13;8.93;;;2.70;;
34296;SDS011;20564;42.902;25.336;2023-04-15T17:28:49;4.97;;;2.30;;
34296;SDS011;20564;42.902;25.336;2023-04-15T17:32:18;6.78;;;2.20;;
34296;SDS011;20564;42.902;25.336;2023-04-15T17:35:12;5.65;;;1.70;;
34296;SDS011;20564;42.902;25.336;2023-04-15T17:38:25;8.38;;;2.08;;
34296;SDS011;20564;42.902;25.336;2023-04-15T17:41:20;5.18;;;1.75;;
34296;SDS011;20564;42.902;25.336;2023-04-15T17:52:37;4.82;;;1.65;;
34296;SDS011;20564;42.902;25.336;2023-04-15T17:55:07;5.43;;;1.73;;
34296;SDS011;20564;42.902;25.336;2023-04-15T17:58:53;4.03;;;1.25;;
34296;SDS011;20564;42.902;25.336;2023-04-15T18:05:55;4.88;;;1.25;;
34296;SDS011;20564;42.902;25.336;2023-04-15T18:09:02;2.75;;;1.23;;
34296;SDS011;20564;42.902;25.336;2023-04-15T18:15:57;7.13;;;1.45;;
34296;SDS011;20564;42.902;25.336;2023-04-15T18:18:26;5.00;;;1.50;;